createdAt,value
2019-05-30T00:01:15.088Z,0.80
2019-05-30T00:03:45.672Z,0.60
2019-05-30T00:06:16.226Z,0.70
2019-05-30T00:08:46.835Z,0.70
2019-05-30T00:11:17.403Z,0.70
2019-05-30T00:13:48.067Z,0.70
2019-05-30T00:16:18.650Z,0.70
2019-05-30T00:18:49.250Z,0.70
2019-05-30T00:21:19.862Z,0.70
2019-05-30T00:23:50.451Z,0.70
2019-05-30T00:26:20.940Z,0.80
2019-05-30T00:28:51.472Z,0.70
2019-05-30T00:31:22.082Z,0.80
2019-05-30T00:33:52.683Z,0.70
2019-05-30T00:36:23.258Z,0.70
2019-05-30T00:38:53.852Z,0.70
2019-05-30T00:41:24.374Z,0.70
2019-05-30T00:43:55.887Z,0.70
2019-05-30T00:46:26.531Z,0.80
2019-05-30T00:48:58.210Z,0.73
2019-05-30T00:51:28.948Z,0.70
2019-05-30T00:54:00.587Z,0.60
2019-05-30T00:56:31.376Z,0.70
2019-05-30T00:59:02.752Z,0.70
2019-05-30T01:01:33.395Z,0.70
2019-05-30T01:04:04.961Z,0.80
2019-05-30T01:06:35.660Z,0.80
2019-05-30T01:09:07.452Z,0.70
2019-05-30T01:11:38.226Z,0.80
2019-05-30T01:14:08.820Z,0.80
2019-05-30T01:16:41.868Z,0.70
2019-05-30T01:19:11.607Z,0.73
2019-05-30T01:21:42.194Z,0.80
2019-05-30T01:24:12.908Z,0.80
2019-05-30T01:26:43.411Z,0.70
2019-05-30T01:29:14.001Z,0.80
2019-05-30T01:31:44.567Z,0.70
2019-05-30T01:34:15.185Z,0.80
2019-05-30T01:36:45.808Z,0.70
2019-05-30T01:39:16.421Z,0.77
2019-05-30T01:41:47.038Z,0.80
2019-05-30T01:44:17.674Z,0.70
2019-05-30T01:46:48.323Z,0.70
2019-05-30T01:49:18.872Z,0.80
2019-05-30T01:51:49.399Z,0.80
2019-05-30T01:54:19.982Z,0.70
2019-05-30T01:56:50.443Z,0.80
2019-05-30T01:59:21.019Z,0.70
2019-05-30T02:01:51.600Z,0.70
2019-05-30T02:04:22.188Z,0.70
2019-05-30T02:06:52.736Z,0.70
2019-05-30T02:09:23.457Z,0.70
2019-05-30T02:11:53.957Z,0.70
2019-05-30T02:14:24.469Z,0.80
2019-05-30T02:16:54.933Z,0.80
2019-05-30T02:19:25.845Z,0.70
2019-05-30T02:21:56.483Z,0.80
2019-05-30T02:24:27.129Z,0.80
2019-05-30T02:26:57.721Z,0.80
2019-05-30T02:29:28.303Z,0.80
2019-05-30T02:32:00.840Z,0.80
2019-05-30T02:34:31.255Z,0.80
2019-05-30T02:37:03.882Z,0.80
2019-05-30T02:39:35.208Z,0.80
2019-05-30T02:42:07.169Z,0.90
2019-05-30T02:44:38.038Z,0.80
2019-05-30T02:47:09.604Z,0.80
2019-05-30T02:49:40.579Z,0.73
2019-05-30T02:52:13.005Z,0.70
2019-05-30T02:54:43.495Z,0.80
2019-05-30T02:57:14.082Z,0.80
2019-05-30T02:59:44.671Z,0.87
2019-05-30T03:02:17.603Z,0.80
2019-05-30T03:04:47.493Z,0.80
2019-05-30T03:07:18.432Z,0.70
2019-05-30T03:09:49.213Z,0.80
2019-05-30T03:12:20.052Z,0.77
2019-05-30T03:14:50.700Z,0.80
2019-05-30T03:17:21.283Z,0.80
2019-05-30T03:19:51.928Z,0.80
2019-05-30T03:22:22.523Z,0.80
2019-05-30T03:24:53.139Z,0.80
2019-05-30T03:27:23.744Z,0.80
2019-05-30T03:29:54.311Z,0.80
2019-05-30T03:33:02.174Z,0.80
2019-05-30T03:34:57.313Z,0.80
2019-05-30T03:37:30.179Z,0.80
2019-05-30T03:39:59.981Z,0.80
2019-05-30T03:42:30.680Z,0.80
2019-05-30T03:45:01.361Z,0.80
2019-05-30T03:47:35.120Z,0.80
2019-05-30T03:50:09.043Z,0.80
2019-05-30T03:52:39.108Z,0.70
2019-05-30T03:55:12.544Z,0.80
2019-05-30T03:57:47.557Z,0.80
2019-05-30T04:00:33.850Z,0.80
2019-05-30T04:03:16.390Z,0.80
2019-05-30T04:05:52.505Z,0.80
2019-05-30T04:08:25.235Z,0.80
2019-05-30T04:10:58.671Z,0.80
2019-05-30T04:13:59.307Z,0.80
2019-05-30T04:16:29.874Z,0.80
2019-05-30T04:19:00.343Z,0.80
2019-05-30T04:21:30.956Z,0.73
2019-05-30T04:24:02.618Z,0.80
2019-05-30T04:26:33.221Z,0.70
2019-05-30T04:29:03.814Z,0.80
2019-05-30T04:31:34.384Z,0.80
2019-05-30T04:34:05.072Z,0.80
2019-05-30T04:36:35.596Z,0.73
2019-05-30T04:39:08.868Z,0.80
2019-05-30T04:41:39.736Z,0.70
2019-05-30T04:44:11.797Z,0.80
2019-05-30T04:46:42.465Z,0.80
2019-05-30T04:49:14.414Z,0.80
2019-05-30T04:51:45.205Z,0.80
2019-05-30T04:54:16.860Z,0.80
2019-05-30T04:56:48.017Z,0.80
2019-05-30T04:59:19.856Z,0.80
2019-05-30T05:01:50.755Z,0.77
2019-05-30T05:04:21.714Z,0.80
2019-05-30T05:06:52.405Z,0.80
2019-05-30T05:09:22.973Z,0.80
2019-05-30T05:11:53.512Z,0.80
2019-05-30T05:14:24.039Z,0.70
2019-05-30T05:16:54.589Z,0.70
2019-05-30T05:19:26.336Z,0.77
2019-05-30T05:21:57.345Z,0.70
2019-05-30T05:24:27.956Z,0.70
2019-05-30T05:26:58.603Z,0.70
2019-05-30T05:29:29.173Z,0.70
2019-05-30T05:31:59.697Z,0.70
2019-05-30T05:34:30.262Z,0.70
2019-05-30T05:37:00.968Z,0.70
2019-05-30T05:39:31.555Z,0.70
2019-05-30T05:42:02.062Z,0.70
2019-05-30T05:44:32.689Z,0.80
2019-05-30T05:47:03.301Z,0.77
2019-05-30T05:49:33.858Z,0.80
2019-05-30T05:52:04.562Z,0.70
2019-05-30T05:54:35.126Z,0.80
2019-05-30T05:57:05.771Z,0.70
2019-05-30T05:59:36.287Z,0.80
2019-05-30T06:02:06.819Z,0.70
2019-05-30T06:04:37.393Z,0.70
2019-05-30T06:07:08.034Z,0.80
2019-05-30T06:09:38.708Z,0.80
2019-05-30T06:12:09.291Z,0.70
2019-05-30T06:17:16.959Z,0.80
2019-05-30T06:19:47.601Z,0.70
2019-05-30T06:22:19.117Z,0.73
2019-05-30T06:24:49.818Z,0.70
2019-05-30T06:27:20.434Z,0.70
2019-05-30T06:29:51.012Z,0.70
2019-05-30T06:32:22.882Z,0.70
2019-05-30T06:34:53.743Z,0.70
2019-05-30T06:37:25.208Z,0.70
2019-05-30T06:39:55.902Z,0.70
2019-05-30T06:42:26.500Z,0.70
2019-05-30T06:44:57.002Z,0.70
2019-05-30T06:47:28.459Z,0.70
2019-05-30T06:49:59.134Z,0.70
2019-05-30T06:52:29.827Z,0.60
2019-05-30T06:55:00.497Z,0.60
2019-05-30T06:57:31.456Z,0.70
2019-05-30T07:00:02.154Z,0.70
2019-05-30T07:02:32.886Z,0.70
2019-05-30T07:05:04.202Z,0.70
2019-05-30T07:07:35.285Z,0.70
2019-05-30T07:10:07.639Z,0.70
2019-05-30T07:12:38.134Z,0.60
2019-05-30T07:15:09.310Z,0.70
2019-05-30T07:17:39.913Z,0.70
2019-05-30T07:20:11.097Z,0.70
2019-05-30T07:22:41.771Z,0.70
2019-05-30T07:25:13.169Z,0.60
2019-05-30T07:27:43.747Z,0.70
2019-05-30T07:30:14.634Z,0.70
2019-05-30T07:32:45.291Z,0.70
2019-05-30T07:35:16.999Z,0.70
2019-05-30T07:37:47.671Z,0.60
2019-05-30T07:40:19.847Z,0.70
2019-05-30T07:42:50.757Z,0.70
2019-05-30T07:45:21.483Z,0.70
2019-05-30T07:47:52.142Z,0.60
2019-05-30T07:50:22.907Z,0.63
2019-05-30T07:52:54.472Z,0.63
2019-05-30T07:55:25.121Z,0.67
2019-05-30T07:57:55.813Z,0.60
2019-05-30T08:00:27.418Z,0.60
2019-05-30T08:02:58.190Z,0.70
2019-05-30T08:05:28.813Z,0.50
2019-05-30T08:07:59.640Z,0.60
2019-05-30T08:10:30.309Z,0.67
2019-05-30T08:13:00.995Z,0.60
2019-05-30T08:15:31.608Z,0.57
2019-05-30T08:18:02.309Z,0.60
2019-05-30T08:20:33.933Z,0.60
2019-05-30T08:23:04.575Z,0.60
2019-05-30T08:25:36.352Z,0.60
2019-05-30T08:28:07.177Z,0.70
2019-05-30T08:30:38.738Z,0.50
2019-05-30T08:33:09.372Z,0.60
2019-05-30T08:35:49.198Z,0.60
2019-05-30T08:38:12.162Z,0.60
2019-05-30T08:40:42.772Z,0.60
2019-05-30T08:43:13.363Z,0.60
2019-05-30T08:45:44.004Z,0.67
2019-05-30T08:48:14.693Z,0.60
2019-05-30T08:50:45.282Z,0.53
2019-05-30T08:53:15.945Z,0.60
2019-05-30T08:55:46.575Z,0.60
2019-05-30T08:58:17.204Z,0.60
2019-05-30T09:00:47.840Z,0.60
2019-05-30T09:03:18.438Z,0.60
2019-05-30T09:06:03.018Z,0.57
2019-05-30T09:08:21.168Z,0.60
2019-05-30T09:10:51.716Z,0.60
2019-05-30T09:13:22.207Z,0.60
2019-05-30T09:15:52.776Z,0.60
2019-05-30T09:18:23.418Z,0.50
2019-05-30T09:20:54.036Z,0.60
2019-05-30T09:23:24.642Z,0.60
2019-05-30T09:25:55.200Z,0.60
2019-05-30T09:28:25.734Z,0.60
2019-05-30T09:30:58.700Z,0.60
2019-05-30T09:33:29.280Z,0.60
2019-05-30T09:36:12.806Z,0.60
2019-05-30T09:38:32.295Z,0.60
2019-05-30T09:41:02.860Z,0.60
2019-05-30T09:43:33.493Z,0.60
2019-05-30T09:46:04.111Z,0.60
2019-05-30T09:48:34.677Z,0.60
2019-05-30T09:51:05.313Z,0.60
2019-05-30T09:53:35.952Z,0.60
2019-05-30T09:56:06.652Z,0.60
2019-05-30T09:58:37.256Z,0.60
2019-05-30T10:01:07.892Z,0.67
2019-05-30T10:03:38.555Z,0.60
2019-05-30T10:06:09.343Z,0.60
2019-05-30T10:08:40.028Z,0.60
2019-05-30T10:11:10.624Z,0.60
2019-05-30T10:13:41.149Z,0.60
2019-05-30T10:16:11.911Z,0.60
2019-05-30T10:18:42.686Z,0.60
2019-05-30T10:21:13.385Z,0.60
2019-05-30T10:23:45.720Z,0.60
2019-05-30T10:26:16.872Z,0.60
2019-05-30T10:28:47.793Z,0.60
2019-05-30T10:31:18.775Z,0.60
2019-05-30T10:33:49.784Z,0.60
2019-05-30T10:36:21.605Z,0.60
2019-05-30T10:38:52.322Z,0.53
2019-05-30T10:41:22.977Z,0.60
2019-05-30T10:43:53.600Z,0.60
2019-05-30T10:46:24.103Z,0.60
2019-05-30T10:48:54.896Z,0.60
2019-05-30T10:51:25.557Z,0.60
2019-05-30T10:53:56.229Z,0.60
2019-05-30T10:56:26.899Z,0.60
2019-05-30T10:58:57.496Z,0.60
2019-05-30T11:01:28.204Z,0.60
2019-05-30T11:03:58.738Z,0.60
2019-05-30T11:06:39.423Z,0.60
2019-05-30T11:09:09.963Z,0.60
2019-05-30T11:11:40.641Z,0.60
2019-05-30T11:14:11.293Z,0.50
2019-05-30T11:16:41.915Z,0.60
2019-05-30T11:19:12.616Z,0.60
2019-05-30T11:21:43.201Z,0.60
2019-05-30T11:24:13.760Z,0.50
2019-05-30T11:26:44.444Z,0.50
2019-05-30T11:29:15.019Z,0.60
2019-05-30T11:31:45.622Z,0.50
2019-05-30T11:34:16.232Z,0.60
2019-05-30T11:36:46.756Z,0.60
2019-05-30T11:39:17.375Z,0.60
2019-05-30T11:41:49.100Z,0.50
2019-05-30T11:44:19.661Z,0.50
2019-05-30T11:46:51.442Z,0.50
2019-05-30T11:49:22.150Z,0.53
2019-05-30T11:51:53.677Z,0.60
2019-05-30T11:54:24.301Z,0.50
2019-05-30T11:56:56.071Z,0.50
2019-05-30T11:59:26.880Z,0.50
2019-05-30T12:01:58.489Z,0.60
2019-05-30T12:04:29.240Z,0.50
2019-05-30T12:07:00.933Z,0.50
2019-05-30T12:09:31.613Z,0.60
2019-05-30T12:12:02.210Z,0.60
2019-05-30T12:14:32.777Z,0.60
2019-05-30T12:17:03.487Z,0.50
2019-05-30T12:19:34.113Z,0.60
2019-05-30T12:22:04.942Z,0.50
2019-05-30T12:24:35.532Z,0.50
2019-05-30T12:27:06.222Z,0.50
2019-05-30T12:29:36.822Z,0.50
2019-05-30T12:32:07.429Z,0.50
2019-05-30T12:34:38.063Z,0.50
2019-05-30T12:37:08.600Z,0.50
2019-05-30T12:39:39.190Z,0.50
2019-05-30T12:42:09.704Z,0.50
2019-05-30T12:44:40.373Z,0.53
2019-05-30T12:47:10.895Z,0.50
2019-05-30T12:49:41.526Z,0.50
2019-05-30T12:52:12.129Z,0.50
2019-05-30T12:54:42.758Z,0.50
2019-05-30T12:57:13.350Z,0.50
2019-05-30T12:59:43.920Z,0.50
2019-05-30T13:02:14.543Z,0.50
2019-05-30T13:04:45.056Z,0.50
2019-05-30T13:07:15.677Z,0.50
2019-05-30T13:09:46.288Z,0.40
2019-05-30T13:12:16.963Z,0.50
2019-05-30T13:14:47.545Z,0.50
2019-05-30T13:17:18.083Z,0.60
2019-05-30T13:19:48.621Z,0.50
2019-05-30T13:22:19.238Z,0.50
2019-05-30T13:24:49.778Z,0.40
2019-05-30T13:27:20.343Z,0.50
2019-05-30T13:29:50.911Z,0.50
2019-05-30T13:32:21.579Z,0.50
2019-05-30T13:34:52.105Z,0.50
2019-05-30T13:37:22.727Z,0.60
2019-05-30T13:39:53.328Z,0.50
2019-05-30T13:42:23.938Z,0.50
2019-05-30T13:44:54.421Z,0.40
2019-05-30T13:47:25.004Z,0.50
2019-05-30T13:49:55.618Z,0.60
2019-05-30T13:52:26.289Z,0.50
2019-05-30T13:54:56.861Z,0.60
2019-05-30T13:57:27.538Z,0.50
2019-05-30T13:59:58.093Z,0.40
2019-05-30T14:02:28.780Z,0.40
2019-05-30T14:04:59.989Z,0.53
2019-05-30T14:07:30.736Z,0.50
2019-05-30T14:10:02.415Z,0.50
2019-05-30T14:12:33.099Z,0.50
2019-05-30T14:15:09.140Z,0.40
2019-05-30T14:17:36.078Z,0.50
2019-05-30T14:20:07.053Z,0.50
2019-05-30T14:22:37.794Z,0.50
2019-05-30T14:25:09.483Z,0.50
2019-05-30T14:27:39.487Z,0.53
2019-05-30T14:30:11.033Z,0.50
2019-05-30T14:32:41.103Z,0.50
2019-05-30T14:35:13.293Z,0.47
2019-05-30T14:37:42.625Z,0.50
2019-05-30T14:40:13.099Z,0.50
2019-05-30T14:42:43.203Z,0.40
2019-05-30T14:45:14.748Z,0.50
2019-05-30T14:47:44.605Z,0.50
2019-05-30T14:50:14.636Z,0.50
2019-05-30T14:52:44.417Z,0.50
2019-05-30T14:55:14.317Z,0.50
2019-05-30T14:57:44.116Z,0.50
2019-05-30T15:00:14.871Z,0.50
2019-05-30T15:02:44.631Z,0.50
2019-05-30T15:05:15.599Z,0.50
2019-05-30T15:07:45.668Z,0.50
2019-05-30T15:10:17.032Z,0.50
2019-05-30T15:12:47.022Z,0.50
2019-05-30T15:15:18.786Z,0.50
2019-05-30T15:17:48.724Z,0.50
2019-05-30T15:20:19.795Z,0.50
2019-05-30T15:22:49.632Z,0.50
2019-05-30T15:25:19.459Z,0.50
2019-05-30T15:27:49.365Z,0.50
2019-05-30T15:30:19.234Z,0.50
2019-05-30T15:32:48.970Z,0.50
2019-05-30T15:35:19.337Z,0.50
2019-05-30T15:37:49.225Z,0.50
2019-05-30T15:40:19.573Z,0.50
2019-05-30T15:42:52.977Z,0.40
2019-05-30T15:45:20.944Z,0.40
2019-05-30T15:47:50.797Z,0.50
2019-05-30T15:50:20.536Z,0.50
2019-05-30T15:52:51.956Z,0.40
2019-05-30T15:55:23.274Z,0.50
2019-05-30T15:57:53.273Z,0.50
2019-05-30T16:00:23.180Z,0.50
2019-05-30T16:02:53.019Z,0.60
2019-05-30T16:05:22.793Z,0.50
2019-05-30T16:07:52.540Z,0.60
2019-05-30T16:10:22.345Z,0.50
2019-05-30T16:12:52.110Z,0.57
2019-05-30T16:15:21.854Z,0.50
2019-05-30T16:17:51.624Z,0.50
2019-05-30T16:20:22.029Z,0.50
2019-05-30T16:22:51.921Z,0.40
2019-05-30T16:25:21.788Z,0.50
2019-05-30T16:27:51.532Z,0.50
2019-05-30T16:30:24.291Z,0.50
2019-05-30T16:32:52.812Z,0.47
2019-05-30T16:35:22.612Z,0.50
2019-05-30T16:37:52.325Z,0.50
2019-05-30T16:40:22.438Z,0.50
2019-05-30T16:42:52.267Z,0.50
2019-05-30T16:45:25.045Z,0.55
2019-05-30T16:47:53.533Z,0.50
2019-05-30T16:50:23.645Z,0.45
2019-05-30T16:52:53.433Z,0.50
2019-05-30T16:55:23.495Z,0.50
2019-05-30T16:57:53.471Z,0.50
2019-05-30T17:00:23.236Z,0.50
2019-05-30T17:02:53.197Z,0.50
2019-05-30T17:05:23.071Z,0.50
2019-05-30T17:07:52.948Z,0.50
2019-05-30T17:10:30.693Z,0.50
2019-05-30T17:12:54.263Z,0.50
2019-05-30T17:15:24.091Z,0.50
2019-05-30T17:17:53.952Z,0.50
2019-05-30T17:20:24.535Z,0.43
2019-05-30T17:22:54.366Z,0.50
2019-05-30T17:25:25.166Z,0.50
2019-05-30T17:27:55.161Z,0.50
2019-05-30T17:30:25.830Z,0.43
2019-05-30T17:32:55.669Z,0.50
2019-05-30T17:35:26.269Z,0.47
2019-05-30T17:37:56.219Z,0.50
2019-05-30T17:40:41.103Z,0.50
2019-05-30T17:42:57.551Z,0.50
2019-05-30T17:45:27.419Z,0.50
2019-05-30T17:48:07.510Z,0.50
2019-05-30T17:50:29.779Z,0.40
2019-05-30T17:52:59.880Z,0.50
2019-05-30T17:55:30.123Z,0.50
2019-05-30T17:58:00.077Z,0.50
2019-05-30T18:00:30.667Z,0.50
2019-05-30T18:03:00.536Z,0.50
2019-05-30T18:05:30.945Z,0.50
2019-05-30T18:08:00.886Z,0.50
2019-05-30T18:10:31.173Z,0.60
2019-05-30T18:13:01.260Z,0.60
2019-05-30T18:15:32.362Z,0.57
2019-05-30T18:18:02.386Z,0.50
2019-05-30T18:20:39.973Z,0.50
2019-05-30T18:23:03.697Z,0.60
2019-05-30T18:25:33.473Z,0.50
2019-05-30T18:28:03.390Z,0.50
2019-05-30T18:30:40.251Z,0.50
2019-05-30T18:33:10.118Z,0.57
2019-05-30T18:35:39.894Z,0.60
2019-05-30T18:38:09.785Z,0.50
2019-05-30T18:40:40.168Z,0.40
2019-05-30T18:43:10.032Z,0.60
2019-05-30T18:45:40.744Z,0.60
2019-05-30T18:48:11.160Z,0.50
2019-05-30T18:50:41.006Z,0.60
2019-05-30T18:53:10.930Z,0.60
2019-05-30T18:55:40.761Z,0.50
2019-05-30T18:58:10.546Z,0.50
2019-05-30T19:00:40.317Z,0.60
2019-05-30T19:03:10.146Z,0.60
2019-05-30T19:05:40.012Z,0.60
2019-05-30T19:08:09.955Z,0.60
2019-05-30T19:10:39.778Z,0.50
2019-05-30T19:13:09.628Z,0.60
2019-05-30T19:15:39.357Z,0.60
2019-05-30T19:18:09.530Z,0.60
2019-05-30T19:20:39.348Z,0.60
2019-05-30T19:23:09.248Z,0.50
2019-05-30T19:25:39.064Z,0.60
2019-05-30T19:28:08.901Z,0.60
2019-05-30T19:30:41.116Z,0.50
2019-05-30T19:33:10.307Z,0.60
2019-05-30T19:35:40.161Z,0.60
2019-05-30T19:38:09.873Z,0.60
2019-05-30T19:40:39.654Z,0.50
2019-05-30T19:43:09.446Z,0.60
2019-05-30T19:45:39.245Z,0.50
2019-05-30T19:48:09.118Z,0.60
2019-05-30T19:50:38.968Z,0.60
2019-05-30T19:53:08.797Z,0.50
2019-05-30T19:55:39.424Z,0.60
2019-05-30T19:58:09.374Z,0.60
2019-05-30T20:00:57.267Z,0.60
2019-05-30T20:03:10.683Z,0.50
2019-05-30T20:05:40.970Z,0.60
2019-05-30T20:08:10.871Z,0.60
2019-05-30T20:10:41.340Z,0.60
2019-05-30T20:13:11.385Z,0.50
2019-05-30T20:15:41.492Z,0.60
2019-05-30T20:18:11.492Z,0.50
2019-05-30T20:20:53.962Z,0.60
2019-05-30T20:23:12.757Z,0.60
2019-05-30T20:25:45.878Z,0.60
2019-05-30T20:28:14.193Z,0.60
2019-05-30T20:30:44.014Z,0.60
2019-05-30T20:33:13.807Z,0.60
2019-05-30T20:35:43.597Z,0.60
2019-05-30T20:38:13.459Z,0.60
2019-05-30T20:40:43.266Z,0.60
2019-05-30T20:43:13.169Z,0.60
2019-05-30T20:45:48.057Z,0.60
2019-05-30T20:48:14.569Z,0.50
2019-05-30T20:50:44.497Z,0.60
2019-05-30T20:53:14.366Z,0.60
2019-05-30T20:55:44.322Z,0.60
2019-05-30T20:58:14.635Z,0.60
2019-05-30T21:00:44.440Z,0.60
2019-05-30T21:03:14.428Z,0.60
2019-05-30T21:05:44.273Z,0.60
2019-05-30T21:08:14.751Z,0.50
2019-05-30T21:10:45.445Z,0.60
2019-05-30T21:13:15.900Z,0.50
2019-05-30T21:15:46.756Z,0.50
2019-05-30T21:18:17.844Z,0.60
2019-05-30T21:20:47.815Z,0.60
2019-05-30T21:23:17.636Z,0.50
2019-05-30T21:25:47.503Z,0.60
2019-05-30T21:28:17.520Z,0.50
2019-05-30T21:30:47.579Z,0.60
2019-05-30T21:33:17.646Z,0.60
2019-05-30T21:35:48.065Z,0.60
2019-05-30T21:38:18.118Z,0.60
2019-05-30T21:40:48.637Z,0.60
2019-05-30T21:43:18.743Z,0.60
2019-05-30T21:45:48.979Z,0.60
2019-05-30T21:48:18.940Z,0.60
2019-05-30T21:50:50.141Z,0.50
2019-05-30T21:53:20.050Z,0.60
2019-05-30T21:55:50.241Z,0.60
2019-05-30T21:58:20.107Z,0.60
2019-05-30T22:01:07.846Z,0.50
2019-05-30T22:03:37.612Z,0.60
2019-05-30T22:06:07.449Z,0.60
2019-05-30T22:08:37.285Z,0.60
2019-05-30T22:11:07.248Z,0.60
2019-05-30T22:13:37.066Z,0.53
2019-05-30T22:16:06.858Z,0.60
2019-05-30T22:18:36.723Z,0.60
2019-05-30T22:21:06.424Z,0.60
2019-05-30T22:23:36.215Z,0.60
2019-05-30T22:26:06.136Z,0.60
2019-05-30T22:28:36.024Z,0.60
2019-05-30T22:31:05.853Z,0.60
2019-05-30T22:33:35.571Z,0.60
2019-05-30T22:36:05.444Z,0.50
2019-05-30T22:38:35.403Z,0.57
2019-05-30T22:41:05.242Z,0.50
2019-05-30T22:43:35.066Z,0.60
2019-05-30T22:46:05.138Z,0.60
2019-05-30T22:48:34.970Z,0.60
2019-05-30T22:51:04.711Z,0.60
2019-05-30T22:53:34.562Z,0.40
2019-05-30T22:56:04.481Z,0.50
2019-05-30T22:58:34.407Z,0.50
2019-05-30T23:01:04.239Z,0.60
2019-05-30T23:03:34.030Z,0.60
2019-05-30T23:06:03.889Z,0.60
2019-05-30T23:08:33.747Z,0.60
2019-05-30T23:11:03.635Z,0.60
2019-05-30T23:13:40.621Z,0.50
2019-05-30T23:16:04.982Z,0.60
2019-05-30T23:18:34.879Z,0.50
2019-05-30T23:21:04.647Z,0.60
2019-05-30T23:23:34.477Z,0.50
2019-05-30T23:26:04.383Z,0.60
2019-05-30T23:28:34.383Z,0.60
2019-05-30T23:31:04.181Z,0.60
2019-05-30T23:33:34.032Z,0.60
2019-05-30T23:36:03.776Z,0.60
2019-05-30T23:38:33.660Z,0.60
2019-05-30T23:41:03.510Z,0.60
2019-05-30T23:43:33.656Z,0.60
2019-05-30T23:46:03.481Z,0.60
2019-05-30T23:48:33.335Z,0.60
2019-05-30T23:51:03.105Z,0.60
2019-05-30T23:53:32.960Z,0.60
2019-05-30T23:56:02.843Z,0.60
2019-05-30T23:58:32.765Z,0.60
